Time;durP1;ratioP1;P1;durP2;ratioP2;P2;SDS_P1;SDS_P2;PMS_P1;PMS_P2;Temp;Humidity;BMP_temperature;BMP_pressure;BME280_temperature;BME280_humidity;BME280_pressure;Samples;Min_cycle;Max_cycle;Signal;HPM_P1;HPM_P2
2023/06/15 00:02:25;;;;;;;5.70;4.40;;;;;;;18.22;100.00;100196.52;110085;1276;139598;-65
2023/06/15 00:04:52;;;;;;;6.80;3.70;;;;;;;18.21;100.00;100195.34;110086;1270;139846;-66
2023/06/15 00:07:20;;;;;;;5.70;4.10;;;;;;;18.20;100.00;100194.42;110224;1273;23178;-65
2023/06/15 00:09:47;;;;;;;5.40;4.50;;;;;;;18.19;100.00;100196.39;110092;1258;139184;-66
2023/06/15 00:12:14;;;;;;;7.60;3.70;;;;;;;18.16;100.00;100196.28;110128;1273;139835;-64
2023/06/15 00:14:42;;;;;;;6.70;4.20;;;;;;;18.10;100.00;100193.32;110363;1271;22502;-66
2023/06/15 00:17:11;;;;;;;9.50;4.80;;;;;;;18.05;100.00;100193.40;110148;1278;138506;-63
2023/06/15 00:19:39;;;;;;;5.90;4.00;;;;;;;18.08;100.00;100196.15;110177;1277;22184;-65
2023/06/15 00:22:09;;;;;;;4.80;4.30;;;;;;;18.10;100.00;100196.07;109992;1272;138679;-68
2023/06/15 00:24:37;;;;;;;7.90;4.70;;;;;;;18.11;100.00;100197.48;110171;1278;141075;-64
2023/06/15 00:27:07;;;;;;;5.30;4.00;;;;;;;18.12;100.00;100198.76;110136;1272;22225;-67
2023/06/15 00:29:35;;;;;;;4.80;4.30;;;;;;;18.13;100.00;100190.41;110023;1271;138640;-65
2023/06/15 00:32:06;;;;;;;5.20;4.00;;;;;;;18.13;100.00;100190.20;110188;1272;139704;-65
2023/06/15 00:34:33;;;;;;;5.00;4.30;;;;;;;18.12;100.00;100190.39;110185;1276;22304;-66
2023/06/15 00:37:01;;;;;;;5.40;4.10;;;;;;;18.13;100.00;100189.86;110229;1270;139524;-66
2023/06/15 00:39:31;;;;;;;10.30;4.30;;;;;;;18.12;100.00;100190.98;110320;1271;23922;-66
2023/06/15 00:41:58;;;;;;;5.40;3.70;;;;;;;18.11;100.00;100192.05;110129;1278;140576;-66
2023/06/15 00:44:27;;;;;;;5.40;4.70;;;;;;;18.11;100.00;100193.55;110037;1278;138618;-67
2023/06/15 00:46:56;;;;;;;7.00;5.20;;;;;;;18.11;100.00;100198.55;110159;1278;22212;-68
2023/06/15 00:49:24;;;;;;;5.00;4.60;;;;;;;18.10;100.00;100199.36;110008;1274;138948;-69
2023/06/15 00:51:52;;;;;;;7.40;4.40;;;;;;;18.12;100.00;100196.38;110138;1278;23031;-67
2023/06/15 00:54:23;;;;;;;4.40;4.10;;;;;;;18.12;100.00;100195.25;110036;1273;139203;-67
2023/06/15 00:56:51;;;;;;;26.50;20.30;;;;;;;18.14;100.00;100193.98;110046;1262;140208;-66
2023/06/15 00:59:19;;;;;;;5.70;4.90;;;;;;;18.13;100.00;100192.84;110200;1261;22246;-67
2023/06/15 01:01:54;;;;;;;8.10;4.30;;;;;;;18.13;100.00;100190.30;110003;1275;140502;-66
2023/06/15 01:04:26;;;;;;;6.70;3.80;;;;;;;18.12;100.00;100188.71;110070;1269;138988;-65
2023/06/15 01:06:57;;;;;;;7.60;4.50;;;;;;;18.10;100.00;100189.07;110310;1272;22899;-66
2023/06/15 01:09:26;;;;;;;5.60;4.70;;;;;;;18.08;100.00;100185.89;110285;1270;139947;-67
2023/06/15 01:11:57;;;;;;;5.60;4.50;;;;;;;18.08;100.00;100188.20;110179;1276;22795;-67
2023/06/15 01:14:28;;;;;;;4.50;3.50;;;;;;;18.01;100.00;100177.73;110031;1270;139336;-67
2023/06/15 01:17:02;;;;;;;5.10;4.10;;;;;;;18.06;100.00;100189.95;110166;1276;140071;-67
2023/06/15 01:19:38;;;;;;;6.00;4.00;;;;;;;18.03;100.00;100188.19;110174;1266;22303;-66
2023/06/15 01:22:49;;;;;;;8.90;4.20;;;;;;;18.02;100.00;100188.33;110185;1276;138580;-66
2023/06/15 01:25:42;;;;;;;5.40;4.40;;;;;;;18.05;100.00;100187.02;109811;1270;140159;-64
2023/06/15 01:28:11;;;;;;;6.60;4.50;;;;;;;18.04;100.00;100186.37;109988;1276;139802;-66
2023/06/15 01:30:48;;;;;;;10.30;5.30;;;;;;;18.07;100.00;100187.98;110162;1275;22216;-65
2023/06/15 01:33:15;;;;;;;8.10;4.20;;;;;;;18.14;100.00;100185.89;110249;1274;139832;-66
2023/06/15 01:35:44;;;;;;;5.60;4.40;;;;;;;18.17;100.00;100186.59;110187;1260;22353;-67
2023/06/15 01:38:13;;;;;;;4.80;3.90;;;;;;;18.20;100.00;100188.00;110201;1276;138568;-65
2023/06/15 01:40:46;;;;;;;6.10;5.20;;;;;;;18.22;100.00;100189.34;110184;1275;139627;-65
2023/06/15 01:43:18;;;;;;;7.60;4.10;;;;;;;18.18;100.00;100177.08;110296;1276;22350;-65
2023/06/15 01:45:48;;;;;;;8.10;3.90;;;;;;;18.26;100.00;100184.23;110276;1269;139865;-65
2023/06/15 01:48:16;;;;;;;5.40;4.90;;;;;;;18.25;100.00;100186.52;110085;1276;142547;-67
2023/06/15 01:50:44;;;;;;;11.50;4.10;;;;;;;18.26;100.00;100183.97;110149;1276;22318;-65
2023/06/15 01:53:11;;;;;;;6.30;4.70;;;;;;;18.29;100.00;100181.63;110083;1270;138819;-65
2023/06/15 01:55:38;;;;;;;4.30;3.70;;;;;;;18.31;100.00;100181.50;110295;1266;23175;-64
2023/06/15 01:58:06;;;;;;;4.40;4.00;;;;;;;18.33;100.00;100177.81;110076;1277;138454;-66
2023/06/15 02:00:33;;;;;;;7.40;4.30;;;;;;;18.33;100.00;100175.06;110019;1272;139198;-66
2023/06/15 02:03:01;;;;;;;6.60;4.50;;;;;;;18.32;100.00;100175.16;110210;1276;22196;-65
2023/06/15 02:05:29;;;;;;;4.80;4.10;;;;;;;18.33;100.00;100176.14;110232;1270;139768;-66
2023/06/15 02:07:56;;;;;;;6.50;3.70;;;;;;;18.35;100.00;100176.55;110213;1269;22312;-65
2023/06/15 02:10:24;;;;;;;5.40;3.50;;;;;;;18.38;100.00;100178.02;110082;1272;138189;-66
2023/06/15 02:12:51;;;;;;;6.20;3.50;;;;;;;18.41;100.00;100182.44;110182;1272;138956;-64
2023/06/15 02:15:20;;;;;;;4.30;3.60;;;;;;;18.44;100.00;100181.73;110285;1260;22368;-65
2023/06/15 02:17:48;;;;;;;4.20;3.50;;;;;;;18.47;100.00;100180.65;110171;1269;139000;-66
2023/06/15 02:20:16;;;;;;;7.50;4.10;;;;;;;18.49;100.00;100180.58;110087;1270;140015;-65
2023/06/15 02:22:44;;;;;;;6.30;3.60;;;;;;;18.49;100.00;100181.06;110264;1273;23079;-66
2023/06/15 02:25:12;;;;;;;4.10;3.50;;;;;;;18.48;100.00;100177.97;110127;1275;140268;-66
2023/06/15 02:27:40;;;;;;;7.40;3.70;;;;;;;18.50;100.00;100178.85;110246;1273;22419;-66
2023/06/15 02:30:08;;;;;;;5.00;3.70;;;;;;;18.54;100.00;100178.86;110228;1271;140307;-65
2023/06/15 02:32:37;;;;;;;4.20;3.50;;;;;;;18.55;100.00;100181.91;110209;1275;139437;-66
2023/06/15 02:35:09;;;;;;;5.40;3.30;;;;;;;18.57;100.00;100183.02;110177;1276;22298;-66
2023/06/15 02:37:37;;;;;;;5.60;4.00;;;;;;;18.58;100.00;100178.50;110254;1270;139387;-65
2023/06/15 02:40:06;;;;;;;7.10;3.90;;;;;;;18.59;100.00;100175.17;109874;1270;138622;-66
2023/06/15 02:42:35;;;;;;;6.20;4.30;;;;;;;18.62;100.00;100174.41;110389;1275;22136;-66
2023/06/15 02:45:03;;;;;;;4.30;3.60;;;;;;;18.65;100.00;100172.95;110148;1270;140082;-66
2023/06/15 02:47:31;;;;;;;4.50;3.90;;;;;;;18.68;100.00;100172.73;110182;1272;22245;-67
2023/06/15 02:49:59;;;;;;;5.00;4.10;;;;;;;18.66;100.00;100173.28;110060;1273;138596;-66
2023/06/15 02:52:30;;;;;;;4.70;3.90;;;;;;;18.62;100.00;100173.39;110175;1274;140597;-66
2023/06/15 02:54:58;;;;;;;5.10;3.80;;;;;;;18.60;100.00;100178.32;110312;1276;22252;-65
2023/06/15 02:57:26;;;;;;;12.10;4.50;;;;;;;18.57;100.00;100175.73;110008;1270;139007;-66
2023/06/15 03:02:26;;;;;;;7.40;5.10;;;;;;;18.32;100.00;100170.85;103009;1307;545365;-66
2023/06/15 10:01:33;;;;;;;3.20;1.50;;;;;;;25.42;55.56;100159.46;106740;1288;546888;-75
2023/06/15 10:04:03;;;;;;;3.50;1.00;;;;;;;25.45;55.38;100168.09;107410;1270;24234;-87
2023/06/15 10:06:35;;;;;;;4.30;1.20;;;;;;;25.45;54.79;100174.75;106766;1283;23393;-85
2023/06/15 10:09:06;;;;;;;4.60;1.20;;;;;;;25.41;54.36;100173.92;107922;1282;135697;-75
2023/06/15 10:11:39;;;;;;;2.10;1.00;;;;;;;25.38;54.88;100162.61;108516;1273;22716;-80
2023/06/15 10:14:27;;;;;;;8.40;1.70;;;;;;;25.39;55.50;100164.30;107362;1282;171861;-87
2023/06/15 10:17:01;;;;;;;5.00;0.90;;;;;;;25.35;55.18;100161.67;106986;1280;137087;-87
2023/06/15 10:19:32;;;;;;;2.60;1.30;;;;;;;25.28;54.99;100160.71;106408;1282;22599;-76
2023/06/15 10:22:02;;;;;;;2.20;1.20;;;;;;;25.31;54.96;100163.79;106221;1281;137810;-91
2023/06/15 10:24:30;;;;;;;5.50;1.10;;;;;;;25.36;54.79;100166.23;106730;1281;137923;-81
2023/06/15 10:26:58;;;;;;;1.50;0.90;;;;;;;25.41;54.59;100165.25;106814;1281;22527;-85
2023/06/15 10:29:36;;;;;;;3.50;1.40;;;;;;;25.45;54.28;100164.59;106204;1280;138209;-86
2023/06/15 10:32:25;;;;;;;3.50;1.30;;;;;;;25.47;54.48;100164.45;106299;1281;136452;-73
2023/06/15 10:35:16;;;;;;;4.70;1.00;;;;;;;25.47;54.83;100163.64;106174;1281;25234;-91
2023/06/15 10:38:22;;;;;;;3.40;1.10;;;;;;;25.47;55.22;100159.77;106347;1280;138478;-86
2023/06/15 10:40:51;;;;;;;6.50;1.80;;;;;;;25.48;54.95;100166.53;105855;1281;137702;-89
2023/06/15 10:43:20;;;;;;;10.30;1.70;;;;;;;25.42;54.94;100160.44;106564;1276;22528;-91
2023/06/15 10:45:48;;;;;;;3.70;1.00;;;;;;;25.38;55.39;100157.42;106556;1278;138076;-88
2023/06/15 10:48:30;;;;;;;2.70;0.70;;;;;;;25.44;54.59;100154.61;106736;1281;137537;-74
2023/06/15 10:51:06;;;;;;;7.30;1.30;;;;;;;25.50;54.22;100154.83;108438;1281;22548;-68
2023/06/15 10:53:41;;;;;;;3.70;1.10;;;;;;;25.58;54.09;100155.33;107423;1272;137119;-89
2023/06/15 10:56:14;;;;;;;1.60;0.60;;;;;;;25.66;54.28;100156.53;106560;1281;137804;-87
2023/06/15 10:59:11;;;;;;;1.30;1.10;;;;;;;25.77;53.65;100157.24;106439;1275;22598;-73
2023/06/15 11:01:38;;;;;;;;;;;;;;;25.79;54.20;100154.83;106022;1281;137747;-87
2023/06/15 11:04:37;;;;;;;2.80;0.70;;;;;;;25.71;53.57;100153.58;106000;1273;125022;-74
2023/06/15 11:07:07;;;;;;;3.70;0.80;;;;;;;25.51;52.62;100141.60;106570;1279;22487;-78
2023/06/15 11:09:36;;;;;;;3.30;1.30;;;;;;;25.54;53.12;100152.98;106073;1278;139587;-89
2023/06/15 11:12:43;;;;;;;6.40;1.20;;;;;;;25.54;53.76;100151.94;106503;1274;138965;-88
2023/06/15 11:15:14;;;;;;;4.30;1.40;;;;;;;25.60;54.14;100149.62;106249;1280;22545;-78
2023/06/15 11:17:59;;;;;;;2.50;1.00;;;;;;;25.66;54.46;100148.06;105935;1267;137869;-77
2023/06/15 11:20:42;;;;;;;6.70;1.70;;;;;;;25.66;54.53;100151.95;105438;1279;140443;-78
2023/06/15 11:23:13;;;;;;;1.80;1.30;;;;;;;25.61;54.74;100152.88;105697;1280;24771;-70
2023/06/15 11:25:50;;;;;;;3.90;1.50;;;;;;;25.57;55.13;100151.09;105558;1270;138015;-68
2023/06/15 11:28:24;;;;;;;7.50;1.60;;;;;;;25.57;55.34;100155.44;106194;1265;140323;-67
2023/06/15 11:31:06;;;;;;;5.70;2.00;;;;;;;25.54;55.23;100151.27;109887;1270;22299;-70
2023/06/15 11:33:40;;;;;;;5.00;1.40;;;;;;;25.58;55.74;100155.65;106327;1272;137408;-59
2023/06/15 11:36:10;;;;;;;5.30;1.50;;;;;;;25.59;55.77;100155.09;106113;1269;138419;-70
2023/06/15 11:38:38;;;;;;;6.60;2.80;;;;;;;25.61;56.26;100148.20;106295;1269;22537;-70
2023/06/15 11:41:08;;;;;;;5.20;1.20;;;;;;;25.63;56.26;100151.16;106062;1269;137984;-72
2023/06/15 11:43:51;;;;;;;5.80;1.50;;;;;;;25.64;55.88;100149.71;106282;1272;23271;-69
2023/06/15 11:46:21;;;;;;;7.00;2.10;;;;;;;25.62;56.33;100139.34;106332;1270;138657;-65
2023/06/15 11:48:54;;;;;;;3.90;1.20;;;;;;;25.63;56.95;100140.90;106027;1271;138397;-65
2023/06/15 11:51:23;;;;;;;4.30;1.90;;;;;;;25.65;57.24;100141.52;106061;1271;22757;-68
2023/06/15 11:53:54;;;;;;;6.30;2.50;;;;;;;25.71;57.19;100141.45;105949;1261;137936;-71
2023/06/15 11:56:21;;;;;;;3.40;1.40;;;;;;;25.70;57.69;100142.93;106144;1269;138880;-68
2023/06/15 11:58:50;;;;;;;6.30;2.00;;;;;;;25.69;57.93;100144.93;106076;1268;25358;-68
2023/06/15 12:01:20;;;;;;;6.50;2.50;;;;;;;25.64;57.99;100145.21;106204;1269;137261;-64
2023/06/15 12:03:49;;;;;;;9.10;2.70;;;;;;;25.55;57.70;100145.70;106107;1268;25315;-66
2023/06/15 12:06:21;;;;;;;5.70;1.40;;;;;;;25.43;57.46;100148.20;106030;1269;138004;-71
2023/06/15 12:08:51;;;;;;;4.50;1.60;;;;;;;25.36;57.25;100145.95;106226;1271;138467;-67
2023/06/15 12:11:22;;;;;;;2.50;1.40;;;;;;;25.37;57.85;100143.81;106480;1270;22544;-66
2023/06/15 12:13:50;;;;;;;2.80;1.60;;;;;;;25.43;58.34;100142.48;106205;1272;137101;-64
2023/06/15 12:16:18;;;;;;;3.30;1.00;;;;;;;25.46;58.17;100139.05;106125;1269;139303;-68
2023/06/15 12:18:54;;;;;;;3.40;2.00;;;;;;;25.52;58.50;100130.52;106285;1270;22658;-67
2023/06/15 12:21:22;;;;;;;8.20;4.10;;;;;;;25.58;58.35;100130.61;105882;1262;139351;-67
2023/06/15 12:23:51;;;;;;;5.20;2.00;;;;;;;25.59;58.38;100124.52;105978;1269;23860;-66
2023/06/15 12:26:22;;;;;;;5.80;1.60;;;;;;;25.68;58.26;100120.48;106248;1260;136922;-66
2023/06/15 12:28:50;;;;;;;3.90;1.60;;;;;;;25.83;58.30;100119.32;106089;1269;138899;-69
2023/06/15 12:31:20;;;;;;;6.10;1.60;;;;;;;25.87;57.72;100108.96;106223;1269;22502;-67
2023/06/15 12:33:50;;;;;;;2.30;1.00;;;;;;;25.96;57.35;100114.31;106703;1269;137083;-67
2023/06/15 12:36:22;;;;;;;4.50;2.00;;;;;;;25.92;57.71;100113.48;106060;1269;139250;-67
2023/06/15 12:38:50;;;;;;;2.20;1.50;;;;;;;25.90;57.36;100115.77;106150;1269;22532;-66
2023/06/15 12:41:18;;;;;;;1.90;1.40;;;;;;;25.88;57.72;100116.48;106289;1269;140389;-68
2023/06/15 12:43:45;;;;;;;5.40;1.20;;;;;;;25.86;58.08;100112.69;106367;1269;22529;-67
2023/06/15 12:46:13;;;;;;;3.70;1.60;;;;;;;25.82;58.70;100099.15;105964;1269;137261;-69
2023/06/15 12:48:40;;;;;;;3.40;1.40;;;;;;;25.90;59.04;100105.98;106206;1272;137625;-69
2023/06/15 12:51:08;;;;;;;4.00;1.60;;;;;;;25.89;59.18;100105.54;106293;1270;22519;-66
2023/06/15 12:53:37;;;;;;;5.70;2.60;;;;;;;25.90;59.57;100104.12;106000;1269;137259;-69
2023/06/15 12:56:06;;;;;;;5.30;3.40;;;;;;;25.93;59.34;100100.91;106291;1269;137728;-69
2023/06/15 12:58:36;;;;;;;12.10;3.30;;;;;;;25.98;58.70;100102.25;106399;1269;22616;-68
2023/06/15 13:01:05;;;;;;;2.70;2.30;;;;;;;25.99;59.28;100104.15;106357;1272;138861;-70
2023/06/15 13:03:33;;;;;;;3.90;1.70;;;;;;;25.99;59.38;100102.67;106260;1269;22814;-70
2023/06/15 13:06:01;;;;;;;7.40;2.20;;;;;;;25.85;59.57;100086.45;106204;1276;137613;-70
2023/06/15 13:08:28;;;;;;;4.10;1.80;;;;;;;25.91;59.90;100099.45;106297;1262;137452;-69
2023/06/15 13:10:56;;;;;;;7.30;1.40;;;;;;;25.89;60.46;100094.39;106375;1270;22530;-66
2023/06/15 13:13:26;;;;;;;4.00;1.90;;;;;;;25.90;60.61;100091.81;106296;1267;137309;-67
2023/06/15 13:15:54;;;;;;;1.60;1.20;;;;;;;25.92;60.44;100090.00;106477;1270;23916;-68
2023/06/15 13:18:21;;;;;;;1.90;1.50;;;;;;;25.94;60.29;100089.71;106215;1272;138020;-67
2023/06/15 13:20:49;;;;;;;4.00;1.00;;;;;;;25.82;60.15;100085.06;106363;1269;138715;-66
2023/06/15 13:23:16;;;;;;;5.20;1.70;;;;;;;25.72;60.44;100085.42;106520;1272;22636;-67
2023/06/15 13:25:44;;;;;;;1.90;1.40;;;;;;;25.69;61.69;100085.24;106350;1270;137283;-67
2023/06/15 13:28:11;;;;;;;1.90;1.60;;;;;;;25.67;61.72;100087.23;106303;1272;137716;-68
2023/06/15 13:30:39;;;;;;;5.20;2.00;;;;;;;25.73;62.03;100084.04;106326;1269;22698;-68
2023/06/15 13:33:06;;;;;;;3.80;2.70;;;;;;;25.70;62.73;100080.44;106242;1272;137664;-69
2023/06/15 13:35:33;;;;;;;9.50;2.80;;;;;;;25.68;62.60;100080.95;106401;1270;22561;-67
2023/06/15 13:38:01;;;;;;;6.20;1.90;;;;;;;25.75;62.69;100078.56;106218;1269;137339;-64
2023/06/15 13:40:28;;;;;;;2.70;1.90;;;;;;;25.81;62.84;100077.86;106337;1269;138342;-68
2023/06/15 13:42:57;;;;;;;4.80;1.80;;;;;;;25.81;62.73;100076.22;106530;1269;22534;-68
2023/06/15 13:45:24;;;;;;;3.10;2.20;;;;;;;25.77;63.04;100075.45;106338;1270;138477;-68
2023/06/15 13:47:52;;;;;;;4.30;2.00;;;;;;;25.75;63.40;100068.45;106398;1269;22537;-67
2023/06/15 13:50:21;;;;;;;3.10;1.50;;;;;;;25.73;63.31;100062.86;106316;1269;137370;-65
2023/06/15 13:52:51;;;;;;;8.30;2.00;;;;;;;25.76;63.56;100059.32;106323;1270;137531;-68
2023/06/15 13:55:18;;;;;;;6.80;2.50;;;;;;;25.82;63.66;100057.32;106349;1269;25221;-69
2023/06/15 13:57:46;;;;;;;6.60;1.80;;;;;;;25.86;63.67;100055.45;106357;1263;137688;-66
2023/06/15 14:00:15;;;;;;;4.30;1.70;;;;;;;25.88;63.63;100054.33;106488;1256;137774;-68
2023/06/15 14:02:45;;;;;;;3.10;1.80;;;;;;;25.87;63.53;100053.70;106186;1272;24061;-69
2023/06/15 14:05:13;;;;;;;4.50;1.90;;;;;;;25.86;63.69;100050.21;106424;1274;137811;-68
2023/06/15 14:07:42;;;;;;;7.40;1.50;;;;;;;25.86;63.32;100047.16;107607;1268;25535;-68
2023/06/15 14:10:10;;;;;;;3.10;1.20;;;;;;;25.86;62.82;100047.64;106384;1268;137382;-69
2023/06/15 14:12:37;;;;;;;4.50;1.30;;;;;;;25.87;62.79;100049.92;106387;1270;137955;-70
2023/06/15 14:15:06;;;;;;;1.80;1.70;;;;;;;25.87;62.94;100050.96;106664;1275;23927;-67
2023/06/15 14:17:34;;;;;;;3.20;1.40;;;;;;;25.87;62.98;100047.91;106536;1263;137322;-67
2023/06/15 14:20:02;;;;;;;2.10;1.40;;;;;;;25.83;62.94;100047.92;106483;1272;24495;-70
2023/06/15 14:22:30;;;;;;;2.80;2.50;;;;;;;25.76;63.51;100049.61;106481;1269;22633;-67
2023/06/15 14:24:58;;;;;;;4.60;3.10;;;;;;;25.60;64.15;100050.73;106232;1269;138736;-68
2023/06/15 14:27:26;;;;;;;2.50;2.20;;;;;;;25.51;64.17;100050.80;106440;1255;25454;-68
2023/06/15 14:29:53;;;;;;;2.60;1.60;;;;;;;25.52;64.17;100054.11;106201;1267;137388;-67
2023/06/15 14:32:21;;;;;;;2.10;1.30;;;;;;;25.53;63.90;100052.08;106189;1254;138209;-65
2023/06/15 14:34:48;;;;;;;5.60;1.50;;;;;;;25.49;63.63;100053.78;106383;1259;22590;-67
2023/06/15 14:37:16;;;;;;;7.00;2.00;;;;;;;25.50;63.22;100053.65;106152;1261;137584;-68
2023/06/15 14:39:47;;;;;;;6.60;1.80;;;;;;;25.55;63.34;100042.39;106305;1270;22526;-70
2023/06/15 14:42:19;;;;;;;8.60;1.50;;;;;;;25.61;62.72;100041.43;106266;1273;139827;-69
2023/06/15 14:44:47;;;;;;;3.40;1.40;;;;;;;25.66;62.51;100040.27;106398;1269;140324;-66
2023/06/15 14:47:16;;;;;;;3.30;1.70;;;;;;;25.68;62.44;100040.92;106306;1269;25224;-69
2023/06/15 14:49:45;;;;;;;11.10;10.10;;;;;;;25.72;62.58;100042.61;106237;1266;138737;-67
2023/06/15 14:52:13;;;;;;;6.00;2.50;;;;;;;25.77;62.74;100045.71;106424;1273;138770;-64
2023/06/15 14:54:41;;;;;;;4.50;2.00;;;;;;;25.80;62.34;100041.78;106611;1270;22519;-66
2023/06/15 14:57:11;;;;;;;2.50;1.90;;;;;;;25.84;61.27;100037.73;106410;1262;137724;-67
2023/06/15 14:59:38;;;;;;;13.80;1.60;;;;;;;25.89;61.44;100036.35;106377;1269;24306;-67
2023/06/15 15:02:07;;;;;;;4.60;1.70;;;;;;;25.92;61.88;100036.43;106307;1262;138704;-68
2023/06/15 15:04:35;;;;;;;6.80;1.90;;;;;;;25.93;62.32;100035.98;106374;1266;138916;-66
2023/06/15 15:07:03;;;;;;;3.10;1.50;;;;;;;25.93;61.29;100034.34;106374;1272;24261;-67
2023/06/15 15:09:30;;;;;;;8.50;1.50;;;;;;;25.91;58.90;100033.42;106324;1269;137457;-67
2023/06/15 15:11:57;;;;;;;7.00;1.70;;;;;;;25.92;57.15;100030.97;106437;1273;22523;-69
2023/06/15 15:14:25;;;;;;;4.60;1.20;;;;;;;25.95;55.10;100030.02;106259;1270;137936;-65
2023/06/15 15:19:44;;;;;;;7.40;1.40;;;;;;;25.90;53.70;100028.54;103491;1301;549206;-68
2023/06/15 15:22:11;;;;;;;5.10;1.30;;;;;;;25.94;53.45;100035.48;105952;1276;137420;-65
2023/06/15 15:24:39;;;;;;;17.10;7.50;;;;;;;25.96;52.72;100032.83;105854;1267;137694;-64
2023/06/15 15:27:06;;;;;;;6.30;2.60;;;;;;;25.94;53.08;100025.69;109801;1275;22339;-66
2023/06/15 15:29:34;;;;;;;5.90;1.50;;;;;;;25.98;53.65;100027.98;109691;1275;138058;-66
2023/06/15 15:32:01;;;;;;;5.20;1.90;;;;;;;25.99;54.32;100028.24;109595;1278;186899;-65
2023/06/15 15:34:30;;;;;;;3.40;1.30;;;;;;;25.97;54.50;100029.86;110020;1271;22401;-67
2023/06/15 15:36:57;;;;;;;2.90;1.20;;;;;;;25.99;54.62;100034.09;109945;1270;141036;-69
2023/06/15 15:39:25;;;;;;;5.50;1.60;;;;;;;26.03;55.00;100032.61;109994;1270;22339;-67
2023/06/15 15:41:52;;;;;;;6.30;1.70;;;;;;;26.01;54.52;100030.27;109935;1273;138524;-67
2023/06/15 15:44:19;;;;;;;6.00;1.30;;;;;;;25.99;54.22;100034.20;109899;1270;137908;-65
2023/06/15 15:46:47;;;;;;;6.50;0.90;;;;;;;25.96;53.91;100031.95;110084;1270;23041;-68
2023/06/15 15:49:14;;;;;;;3.30;1.20;;;;;;;25.96;53.36;100030.38;110036;1270;139929;-65
2023/06/15 15:51:42;;;;;;;2.60;1.20;;;;;;;25.90;53.48;100020.36;110011;1278;22410;-67
2023/06/15 15:54:11;;;;;;;3.40;1.20;;;;;;;25.96;53.51;100028.30;109967;1272;137629;-69
2023/06/15 15:56:38;;;;;;;5.20;1.40;;;;;;;25.99;53.57;100029.22;109871;1270;138214;-69
2023/06/15 15:59:07;;;;;;;3.40;1.80;;;;;;;25.99;53.79;100028.95;110034;1270;22123;-67
2023/06/15 16:01:34;;;;;;;4.40;1.60;;;;;;;25.96;54.04;100028.30;109877;1271;137495;-66
2023/06/15 16:04:02;;;;;;;3.90;1.70;;;;;;;25.94;54.40;100027.77;109984;1273;22341;-68
2023/06/15 16:06:30;;;;;;;6.20;1.70;;;;;;;25.94;54.73;100029.70;110050;1273;22346;-66
2023/06/15 16:08:57;;;;;;;4.90;1.30;;;;;;;25.96;55.02;100034.91;109914;1272;137689;-69
2023/06/15 16:11:25;;;;;;;7.00;1.80;;;;;;;25.97;55.16;100028.11;109972;1274;22196;-66
2023/06/15 16:13:52;;;;;;;5.60;1.50;;;;;;;25.95;55.25;100025.29;109956;1270;137507;-65
2023/06/15 16:16:20;;;;;;;3.60;1.20;;;;;;;25.95;55.34;100024.71;109945;1270;137699;-67
2023/06/15 16:18:55;;;;;;;9.20;1.40;;;;;;;25.97;55.52;100027.19;110120;1270;22376;-66
2023/06/15 16:21:23;;;;;;;4.60;1.60;;;;;;;25.97;55.26;100029.41;110011;1272;138963;-66
2023/06/15 16:23:51;;;;;;;7.90;2.90;;;;;;;25.98;55.15;100027.77;110101;1268;22313;-69
2023/06/15 16:26:18;;;;;;;4.20;1.10;;;;;;;25.96;55.18;100027.36;109885;1272;137121;-68
2023/06/15 16:28:46;;;;;;;1.90;1.50;;;;;;;25.96;55.06;100029.45;109869;1275;137775;-65
2023/06/15 16:31:14;;;;;;;2.90;1.50;;;;;;;25.94;55.41;100027.80;110071;1271;22358;-68
2023/06/15 16:33:41;;;;;;;4.50;1.20;;;;;;;25.91;55.60;100026.12;109852;1278;137613;-67
2023/06/15 16:36:09;;;;;;;3.10;1.50;;;;;;;25.88;55.85;100028.98;109913;1265;137927;-67
2023/06/15 16:38:36;;;;;;;4.10;1.90;;;;;;;25.88;56.70;100026.82;110017;1272;22343;-70
2023/06/15 16:41:03;;;;;;;4.90;1.40;;;;;;;25.85;56.78;100024.46;109914;1262;137817;-66
2023/06/15 16:43:31;;;;;;;4.20;1.60;;;;;;;25.80;56.86;100028.73;110017;1270;22206;-68
2023/06/15 16:45:58;;;;;;;3.30;1.40;;;;;;;25.73;57.60;100017.33;109990;1276;137659;-69
2023/06/15 16:48:26;;;;;;;4.90;1.60;;;;;;;25.79;58.45;100030.29;109971;1269;138921;-68
2023/06/15 16:50:53;;;;;;;6.10;1.80;;;;;;;25.79;59.26;100034.15;110044;1273;22322;-69
2023/06/15 16:53:21;;;;;;;5.10;2.20;;;;;;;25.79;60.46;100037.48;109979;1278;137488;-69
2023/06/15 16:55:48;;;;;;;5.00;1.90;;;;;;;25.75;61.15;100040.77;110060;1269;23147;-69
2023/06/15 16:58:15;;;;;;;3.00;1.50;;;;;;;25.71;61.91;100042.86;109929;1273;137685;-64
2023/06/15 17:00:42;;;;;;;6.20;1.90;;;;;;;25.66;62.72;100044.63;109916;1270;138255;-67
2023/06/15 17:03:10;;;;;;;3.20;1.80;;;;;;;25.58;61.94;100043.32;109984;1267;22141;-68
2023/06/15 17:05:38;;;;;;;5.40;1.80;;;;;;;25.50;61.63;100048.97;110025;1262;137593;-68
2023/06/15 17:08:06;;;;;;;3.30;2.10;;;;;;;25.42;61.53;100048.84;109958;1262;137365;-67
2023/06/15 17:10:34;;;;;;;5.70;2.00;;;;;;;25.38;61.42;100047.75;110073;1272;22316;-67
2023/06/15 17:13:01;;;;;;;7.60;2.10;;;;;;;25.34;61.54;100051.63;109937;1269;137189;-68
2023/06/15 17:15:29;;;;;;;2.40;1.80;;;;;;;25.31;61.86;100051.89;110044;1269;23122;-67
2023/06/15 17:17:56;;;;;;;6.90;2.00;;;;;;;25.26;61.87;100051.20;109916;1275;140853;-69
2023/06/15 17:20:23;;;;;;;5.10;2.00;;;;;;;25.21;62.36;100050.25;109854;1275;139374;-70
2023/06/15 17:22:51;;;;;;;9.20;2.80;;;;;;;25.19;62.98;100052.02;109788;1278;22339;-69
2023/06/15 17:25:18;;;;;;;4.20;2.30;;;;;;;25.12;62.95;100051.63;109838;1272;138714;-69
2023/06/15 17:27:46;;;;;;;5.80;1.60;;;;;;;25.05;62.96;100051.93;110041;1272;23045;-65
2023/06/15 17:30:14;;;;;;;4.00;1.60;;;;;;;25.00;63.74;100048.77;109898;1273;137952;-67
2023/06/15 17:32:41;;;;;;;1.50;1.40;;;;;;;24.93;63.53;100046.52;109851;1272;137502;-69
2023/06/15 17:35:09;;;;;;;5.60;1.70;;;;;;;24.86;63.82;100043.38;109931;1275;22319;-70
2023/06/15 17:37:36;;;;;;;5.40;2.30;;;;;;;24.80;64.05;100043.23;109955;1273;138373;-68
2023/06/15 17:40:04;;;;;;;2.00;1.60;;;;;;;24.76;64.52;100041.75;109964;1272;138712;-69
2023/06/15 17:42:32;;;;;;;3.90;1.20;;;;;;;24.72;64.74;100045.41;109822;1272;23198;-65
2023/06/15 17:45:00;;;;;;;6.80;2.40;;;;;;;24.67;65.20;100045.17;109800;1272;137868;-69
2023/06/15 17:47:28;;;;;;;6.30;3.00;;;;;;;24.63;65.77;100043.85;109909;1275;23100;-68
2023/06/15 17:49:55;;;;;;;3.50;2.50;;;;;;;24.57;66.74;100043.75;109914;1272;137227;-69
2023/06/15 17:52:22;;;;;;;4.60;1.90;;;;;;;24.50;67.16;100044.73;109825;1271;137827;-68
2023/06/15 17:54:50;;;;;;;9.30;2.40;;;;;;;24.43;67.85;100048.08;109966;1264;22870;-69
2023/06/15 17:57:17;;;;;;;5.30;2.70;;;;;;;24.34;68.56;100047.89;109889;1277;139404;-69
2023/06/15 17:59:45;;;;;;;2.80;2.50;;;;;;;24.28;68.95;100050.99;109995;1275;22337;-70
2023/06/15 18:02:12;;;;;;;6.40;3.00;;;;;;;24.24;69.45;100052.89;109899;1276;138601;-73
2023/06/15 18:04:40;;;;;;;2.60;2.20;;;;;;;24.18;70.14;100054.84;109891;1273;138175;-73
2023/06/15 18:07:07;;;;;;;4.90;2.20;;;;;;;24.12;70.71;100051.02;110058;1271;22121;-74
2023/06/15 18:09:35;;;;;;;5.60;3.00;;;;;;;24.06;70.75;100052.33;109827;1272;137696;-73
2023/06/15 18:12:03;;;;;;;4.70;3.90;;;;;;;24.02;71.72;100057.31;110084;1273;24257;-76
2023/06/15 18:14:30;;;;;;;6.80;5.40;;;;;;;23.96;72.96;100057.47;109902;1272;23211;-76
2023/06/15 18:16:58;;;;;;;4.40;3.10;;;;;;;23.89;74.00;100060.47;109903;1273;138829;-72
2023/06/15 18:19:25;;;;;;;6.30;3.70;;;;;;;23.81;75.07;100058.94;110023;1270;23036;-73
2023/06/15 18:21:53;;;;;;;5.10;4.00;;;;;;;23.73;76.03;100061.75;110028;1273;138199;-72
2023/06/15 18:24:20;;;;;;;5.30;3.50;;;;;;;23.65;77.08;100064.52;110006;1270;138727;-76